Latest Weather Observations for Winton

IDQ60801

Issued at 1:05 pm EST Friday 29 August 2014 (issued every 30 minutes, with the page automatically refreshed every 10 minutes)

About weather observations | Map of weather stations | Latest weather observations for QLD | Other Formats
Station Details ID: 037039 Name: WINTON AIRPORT Lat: -22.36 Lon: 143.08 Height: 192.2 m
Data from the previous 72 hours. | See also: Recent months at Winton
Date/Time
EST
Temp
°C
App
Temp
°C
Dew
Point
Rel
Hum
%
Delta-T
°C
Wind Press
QNH
hPa
Press
MSL
hPa
Rain
since 9 am
mm
Dir
 
Spd
km/h
Gust
km/h
Spd
kts
Gust
kts
29/01:00pm 26.7 21.7 1.2 19 12.2 ESE 17 26 9 14 1019.2 1018.7 0.0
29/12:30pm 25.5 20.4 0.9 20 11.6 ESE 17 32 9 17 1019.7 1019.3 0.0
29/12:00pm 25.4 19.5 1.5 21 11.4 ESE 22 32 12 17 1020.5 1020.1 0.0
29/11:30am 25.6 19.6 3.6 24 11.0 E 24 33 13 18 1021.0 1020.6 0.0
29/11:00am 23.8 18.2 3.7 27 9.9 E 22 35 12 19 1021.6 1021.1 0.0
29/10:30am 22.8 16.3 2.8 27 9.6 E 26 35 14 19 1022.0 1021.5 0.0
29/10:00am 21.4 14.4 2.2 28 9.0 ESE 28 37 15 20 1022.0 1021.5 0.0
29/09:30am 20.1 12.9 1.0 28 8.7 ESE 28 35 15 19 1022.2 1021.7 0.0
29/09:00am 19.0 11.8 0.6 29 8.2 ESE 28 35 15 19 1022.2 1021.7 0.0
29/08:30am 17.2 9.0 -1.0 29 7.8 SE 32 39 17 21 1022.0 1021.5 0.0
29/08:00am 15.1 7.9 -2.3 30 7.0 SE 26 32 14 17 1021.8 1021.3 0.0
29/07:30am 13.4 7.2 -2.9 32 6.4 SE 20 26 11 14 1021.6 1021.1 0.0
29/07:00am 12.0 5.9 -3.8 33 6.0 SE 19 24 10 13 1021.2 1020.8 0.0
29/06:30am 11.9 5.6 -3.8 33 6.0 SE 20 24 11 13 1021.0 1020.6 0.0
29/06:00am 11.2 5.5 -4.1 34 5.7 ESE 17 20 9 11 1020.6 1020.2 0.0
29/05:30am 11.1 5.4 -4.1 34 5.7 ESE 17 20 9 11 1020.5 1020.1 0.0
29/05:00am 11.3 5.5 -4.4 33 5.8 ESE 17 20 9 11 1020.3 1019.9 0.0
29/04:30am 11.7 5.9 -4.4 32 6.0 ESE 17 19 9 10 1020.1 1019.7 0.0
29/04:00am 13.2 7.1 -4.0 30 6.6 SE 19 22 10 12 1019.9 1019.5 0.0
29/03:30am 13.1 7.4 -3.6 31 6.5 SE 17 22 9 12 1020.0 1019.6 0.0
29/03:00am 12.8 7.5 -3.9 31 6.4 ESE 15 19 8 10 1020.0 1019.6 0.0
29/02:30am 15.5 9.5 -3.4 27 7.5 SE 19 24 10 13 1020.3 1019.9 0.0
29/02:00am 15.8 10.5 -3.6 26 7.7 SE 15 17 8 9 1020.6 1020.2 0.0
29/01:30am 16.6 11.0 -2.5 27 7.8 SE 17 22 9 12 1020.4 1020.0 0.0
29/01:00am 13.6 9.5 -2.8 32 6.5 SE 9 11 5 6 1020.7 1020.3 0.0
29/12:30am 13.0 9.0 -2.5 34 6.1 ESE 9 9 5 5 1020.9 1020.5 0.0
29/12:00am 13.2 8.8 -2.3 34 6.2 ESE 11 11 6 6 1020.9 1020.5 0.0
 
Date/Time
EST
Temp
°C
App
Temp
°C
Dew
Point
Rel
Hum
%
Delta-T
°C
Wind Press
QNH
hPa
Press
MSL
hPa
Rain
since 9 am
mm
Dir
 
Spd
km/h
Gust
km/h
Spd
kts
Gust
kts
28/11:30pm 14.4 10.5 -1.6 33 6.6 SE 9 11 5 6 1020.8 1020.4 0.0
28/11:00pm 14.3 10.8 -1.3 34 6.4 ESE 7 9 4 5 1020.9 1020.5 0.0
28/10:30pm 15.8 12.4 -0.8 32 7.0 SE 7 11 4 6 1020.9 1020.5 0.0
28/10:00pm 16.6 13.3 -0.1 32 7.2 SE 7 9 4 5 1020.9 1020.5 0.0
28/09:30pm 16.8 13.0 -0.4 31 7.4 SE 9 11 5 6 1020.8 1020.4 0.0
28/09:00pm 17.0 12.8 -0.7 30 7.6 ESE 11 13 6 7 1020.7 1020.3 0.0
28/08:30pm 17.7 13.6 -0.5 29 7.9 SE 11 13 6 7 1020.7 1020.3 0.0
28/08:00pm 18.6 14.5 -0.2 28 8.2 SE 11 13 6 7 1020.4 1020.0 0.0
28/07:30pm 19.5 15.4 0.0 27 8.7 SE 11 13 6 7 1020.0 1019.6 0.0
28/07:00pm 21.5 17.2 0.7 25 9.5 ESE 13 15 7 8 1019.6 1019.2 0.0
28/06:30pm 23.1 17.6 0.9 23 10.3 ESE 19 22 10 12 1019.2 1018.7 0.0
28/06:00pm 24.4 17.7 1.3 22 10.9 SE 26 35 14 19 1018.9 1018.4 0.0
28/05:30pm 24.9 18.2 1.7 22 11.1 ESE 26 37 14 20 1018.5 1018.0 0.0
28/05:00pm 25.6 18.7 2.3 22 11.3 SE 28 37 15 20 1018.3 1017.8 0.0
28/04:30pm 25.8 18.4 1.8 21 11.6 SE 30 41 16 22 1018.1 1017.6 0.0
28/04:00pm 26.0 18.7 2.7 22 11.4 SE 30 41 16 22 1018.0 1017.5 0.0
28/03:30pm 25.9 18.9 1.9 21 11.6 ESE 28 39 15 21 1018.0 1017.5 0.0
28/03:00pm 26.0 19.4 2.0 21 11.6 SE 26 39 14 21 1018.2 1017.7 0.0
28/02:30pm 26.0 20.0 3.3 23 11.3 SE 24 35 13 19 1018.5 1018.0 0.0
28/02:00pm 24.7 18.6 2.8 24 10.7 SE 24 39 13 21 1019.0 1018.5 0.0
28/01:30pm 24.9 18.2 3.5 25 10.6 SE 28 43 15 23 1019.5 1019.1 0.0
28/01:00pm 24.3 18.3 3.6 26 10.2 SE 24 39 13 21 1020.1 1019.7 0.0
28/12:30pm 23.2 17.6 3.7 28 9.6 SE 22 35 12 19 1020.5 1020.1 0.0
28/12:00pm 22.9 17.5 4.4 30 9.2 SE 22 43 12 23 1021.1 1020.7 0.0
28/11:30am 21.7 16.3 4.3 32 8.6 ESE 22 33 12 18 1021.6 1021.1 0.0
28/11:00am 21.9 16.1 4.5 32 8.6 ESE 24 33 13 18 1022.1 1021.6 0.0
28/10:30am 20.8 14.6 4.4 34 8.0 ESE 26 37 14 20 1022.4 1021.9 0.0
28/10:00am 20.0 13.8 4.1 35 7.7 ESE 26 32 14 17 1022.7 1022.2 0.0
28/09:30am 19.3 13.0 3.9 36 7.4 ESE 26 35 14 19 1022.7 1022.2 0.0
28/09:00am 18.0 11.3 3.5 38 6.8 ESE 28 39 15 21 1022.3 1021.8 0.0
28/08:30am 16.5 9.3 3.2 41 6.2 SE 30 35 16 19 1022.0 1021.5 0.0
28/08:00am 15.4 8.6 3.2 44 5.6 ESE 28 33 15 18 1021.7 1021.2 0.0
28/07:30am 14.8 8.7 3.0 45 5.4 SE 24 30 13 16 1021.3 1020.9 0.0
28/07:00am 13.7 8.3 2.6 47 4.9 SE 20 28 11 15 1020.8 1020.4 0.0
28/06:30am 13.3 8.1 2.2 47 4.9 SE 19 22 10 12 1020.4 1020.0 0.0
28/06:00am 13.6 8.4 2.2 46 5.0 SE 19 24 10 13 1020.2 1019.8 0.0
28/05:30am 14.3 8.9 2.2 44 5.4 SE 20 26 11 14 1019.9 1019.5 0.0
28/05:00am 15.1 8.9 2.3 42 5.7 SE 24 33 13 18 1019.6 1019.2 0.0
28/04:30am 15.4 10.0 2.2 41 5.9 SE 20 26 11 14 1019.5 1019.1 0.0
28/04:00am 14.3 10.4 3.2 47 5.0 SSE 13 20 7 11 1019.4 1019.0 0.0
28/03:30am 10.3 6.2 -2.7 40 5.0 S 9 11 5 6 1019.4 1019.0 0.0
28/03:00am 10.4 6.6 -3.6 37 5.2 S 7 9 4 5 1019.8 1019.4 0.0
28/02:30am 10.6 6.4 -3.8 36 5.4 S 9 11 5 6 1019.9 1019.5 0.0
28/02:00am 10.7 6.4 -4.9 33 5.7 S 9 9 5 5 1020.1 1019.7 0.0
28/01:30am 12.1 8.3 -3.7 33 6.0 S 7 9 4 5 1020.2 1019.8 0.0
28/01:00am 12.6 9.1 -3.2 33 6.1 S 6 7 3 4 1020.2 1019.8 0.0
28/12:30am 12.7 9.1 -4.0 31 6.4 S 6 7 3 4 1020.3 1019.9 0.0
28/12:00am 13.0 9.2 -3.7 31 6.4 S 7 7 4 4 1020.4 1020.0 0.0
 
Date/Time
EST
Temp
°C
App
Temp
°C
Dew
Point
Rel
Hum
%
Delta-T
°C
Wind Press
QNH
hPa
Press
MSL
hPa
Rain
since 9 am
mm
Dir
 
Spd
km/h
Gust
km/h
Spd
kts
Gust
kts
27/11:30pm 12.3 8.3 -5.7 28 6.6 SSW 7 7 4 4 1020.5 1020.1 0.0
27/11:00pm 14.2 10.6 -4.0 28 7.0 S 6 7 3 4 1020.6 1020.2 0.0
27/10:30pm 14.4 10.8 -3.4 29 7.0 S 6 7 3 4 1020.5 1020.1 0.0
27/10:00pm 14.1 10.3 -5.1 26 7.2 SSE 6 13 3 7 1020.4 1020.0 0.0
27/09:30pm 15.3 11.5 -4.1 26 7.6 S 7 9 4 5 1020.3 1019.9 0.0
27/09:00pm 16.9 12.0 -3.8 24 8.3 S 13 15 7 8 1020.1 1019.7 0.0
27/08:30pm 16.8 12.9 -4.4 23 8.4 S 7 9 4 5 1019.9 1019.5 0.0
27/08:00pm 18.6 13.7 -3.5 22 9.0 SSE 13 15 7 8 1019.6 1019.2 0.0
27/07:30pm 18.7 14.0 -4.7 20 9.4 S 11 11 6 6 1019.2 1018.7 0.0
27/07:00pm 20.0 15.3 -5.0 18 10.1 SSE 11 13 6 7 1018.8 1018.3 0.0
27/06:30pm 21.2 16.5 -4.8 17 10.7 SSE 11 13 6 7 1018.4 1017.9 0.0
27/06:00pm 23.4 18.0 -4.7 15 11.8 SSE 15 20 8 11 1018.0 1017.5 0.0
27/05:30pm 24.2 18.5 -4.0 15 12.1 SSE 17 24 9 13 1017.9 1017.4 0.0
27/05:00pm 25.1 19.7 -4.2 14 12.6 SSE 15 22 8 12 1017.7 1017.2 0.0
27/04:30pm 24.9 19.2 -3.5 15 12.3 S 17 28 9 15 1017.3 1016.8 0.0
27/04:00pm 24.8 18.5 -3.6 15 12.3 SSE 20 30 11 16 1017.2 1016.7 0.0
27/03:30pm 24.7 18.5 -4.6 14 12.5 SSE 19 30 10 16 1017.1 1016.6 0.0
27/03:00pm 24.7 18.4 -3.6 15 12.2 SSE 20 28 11 15 1017.1 1016.6 0.0
27/02:30pm 24.7 19.7 -1.2 18 11.7 SE 15 26 8 14 1017.3 1016.8 0.0
27/02:00pm 23.6 18.3 -0.6 20 11.0 SE 17 28 9 15 1017.9 1017.4 0.0
27/01:30pm 23.7 18.5 0.1 21 10.9 S 17 28 9 15 1018.4 1017.9 0.0
27/01:00pm 22.7 17.0 -0.7 21 10.5 SSE 19 30 10 16 1019.0 1018.5 0.0
27/12:30pm 22.7 16.9 -0.1 22 10.4 SSE 20 32 11 17 1019.8 1019.4 0.0
27/12:00pm 21.5 15.9 0.1 24 9.7 SSE 19 32 10 17 1020.3 1019.9 0.0
27/11:30am 21.2 15.7 0.4 25 9.4 ESE 19 30 10 16 1020.7 1020.3 0.0
27/11:00am 20.3 14.6 0.7 27 8.9 SE 20 32 11 17 1021.2 1020.8 0.0
27/10:30am 19.9 13.1 0.9 28 8.6 SE 26 39 14 21 1021.7 1021.2 0.0
27/10:00am 19.6 13.9 0.6 28 8.5 SE 20 30 11 16 1021.7 1021.2 0.0
27/09:30am 18.2 12.1 0.4 30 7.9 SE 22 28 12 15 1021.6 1021.1 0.0
27/09:00am 16.7 13.4 -0.9 30 7.5 ESE 6 19 3 10 1021.5 1021.0 0.0
27/08:30am 14.1 11.4 -2.8 31 6.7 E 2 6 1 3 1021.2 1020.8 0.0
27/08:00am 11.6 9.0 -4.9 31 6.1 CALM 0 0 0 0 1021.0 1020.6 0.0
27/07:30am 9.1 6.4 -5.5 35 5.2 CALM 0 0 0 0 1020.6 1020.2 0.0
27/07:00am 7.6 4.9 -6.1 37 4.7 CALM 0 0 0 0 1020.2 1019.8 0.0
27/06:30am 7.5 3.6 -6.9 35 4.8 S 6 7 3 4 1019.9 1019.5 0.0
27/06:00am 9.3 5.3 -5.4 35 5.2 S 7 7 4 4 1019.7 1019.3 0.0
27/05:30am 9.1 6.1 -5.5 35 5.2 S 2 4 1 2 1019.4 1019.0 0.0
27/05:00am 8.2 4.7 -6.7 34 5.0 SSW 4 6 2 3 1019.2 1018.7 0.0
27/04:30am 9.5 5.4 -6.3 32 5.5 S 7 9 4 5 1019.2 1018.7 0.0
27/04:00am 11.7 7.4 -4.4 32 6.0 SE 9 11 5 6 1019.1 1018.6 0.0
27/03:30am 11.4 7.4 -6.0 29 6.2 SE 7 9 4 5 1019.3 1018.8 0.0
27/03:00am 11.3 6.5 -6.1 29 6.2 SSE 11 13 6 7 1019.2 1018.7 0.0
27/02:30am 11.6 6.6 -7.7 25 6.7 S 11 13 6 7 1019.3 1018.8 0.0
27/02:00am 12.6 6.9 -7.4 24 7.0 SSE 15 17 8 9 1019.4 1019.0 0.0
27/01:30am 10.3 4.8 -9.4 24 6.4 S 13 17 7 9 1019.7 1019.3 0.0
27/01:00am 12.0 6.9 -9.6 21 7.2 S 11 17 6 9 1019.9 1019.5 0.0
27/12:30am 13.6 7.5 -8.3 21 7.7 S 17 20 9 11 1019.9 1019.5 0.0
27/12:00am 10.8 5.2 -11.2 20 6.9 S 13 15 7 8 1019.9 1019.5 0.0
 
Date/Time
EST
Temp
°C
App
Temp
°C
Dew
Point
Rel
Hum
%
Delta-T
°C
Wind Press
QNH
hPa
Press
MSL
hPa
Rain
since 9 am
mm
Dir
 
Spd
km/h
Gust
km/h
Spd
kts
Gust
kts
26/11:30pm 10.8 5.5 -12.5 18 7.1 SSW 11 15 6 8 1020.0 1019.6 0.0
26/11:00pm 11.5 6.2 -12.0 18 7.3 S 11 13 6 7 1020.0 1019.6 0.0
26/10:30pm 12.0 6.7 -13.0 16 7.7 S 11 13 6 7 1020.0 1019.6 0.0
26/10:00pm 13.8 8.1 -12.3 15 8.4 S 13 15 7 8 1019.8 1019.4 0.0
26/09:30pm 13.3 7.9 -13.6 14 8.3 S 11 11 6 6 1019.7 1019.3 0.0
26/09:00pm 14.4 8.7 -12.7 14 8.7 S 13 15 7 8 1019.4 1019.0 0.0
26/08:30pm 15.9 10.2 -13.4 12 9.5 S 13 15 7 8 1019.1 1018.6 0.0
26/08:00pm 17.7 12.0 -12.0 12 10.1 S 13 15 7 8 1018.7 1018.2 0.0
26/07:30pm 18.3 12.7 -11.6 12 10.3 S 13 15 7 8 1018.4 1017.9 0.0
26/07:00pm 20.4 14.8 -11.0 11 11.3 S 13 17 7 9 1018.2 1017.7 0.0
26/06:30pm 21.8 15.9 -9.9 11 11.8 SSW 15 19 8 10 1017.8 1017.3 0.0
26/06:00pm 23.8 17.2 -9.6 10 12.8 S 19 22 10 12 1017.5 1017.0 0.0
26/05:30pm 24.9 18.3 -8.8 10 13.3 S 19 26 10 14 1017.2 1016.7 0.0
26/05:00pm 25.6 19.2 -7.0 11 13.3 S 19 30 10 16 1017.1 1016.6 0.0
26/04:30pm 25.8 19.3 -5.7 12 13.2 S 20 33 11 18 1017.1 1016.6 0.0
26/04:00pm 26.2 20.7 -5.4 12 13.4 S 15 28 8 15 1017.2 1016.7 0.0
26/03:30pm 26.7 20.9 -5.0 12 13.6 S 17 28 9 15 1017.2 1016.7 0.0
26/03:00pm 26.4 21.0 -4.2 13 13.3 SSW 15 30 8 16 1017.2 1016.7 0.0
26/02:30pm 25.6 20.3 -3.8 14 12.8 S 15 24 8 13 1017.5 1017.0 0.0
26/02:00pm 26.0 20.4 -2.6 15 12.7 S 17 28 9 15 1018.0 1017.5 0.0
26/01:30pm 24.9 21.0 -1.8 17 12.0 ESE 9 13 5 7 1018.4 1017.9 0.0

Other Formats:

Comma delimited format used in spreadsheet applications
http://www.bom.gov.au/fwo/IDQ60801/IDQ60801.94342.axf

JavaScript Object Notation format (JSON) in row-major order
http://www.bom.gov.au/fwo/IDQ60801/IDQ60801.94342.json